Aérodrome :
LOGIN :

S'inscrire | Disclaimer

   EN    FR    IT 

 










Légende :    VFR   VFR Marginal   IFR   IFR Intensif   IFR Très Intensif
Visi : 
Plafond : 
>= 8 km
>= 3000ft
5 à 8 km
1000 à 3000 ft
1500m à 5 km
500 à 1000 ft
800 à 1500m
200 à 500 ft
< 800m
< 200 ft
Symboles :   Orages  Brouillard  Fortes neiges  Fortes précipitations  Vent > 20 kt
SIGMETs :   Divers  Orages  Givrage  Turbulence  Onde Orograph.  Cendres Volcan.







- Altitude de l'aérodrome : 870 ft
- Code IATA : ETZ
- Voir les cartes d'approche


LFJL - Metz Nancy Lorraine

DERNIER METAR :
  • 140800Z AUTO 23018KT 9999 3800 NSC 04/01 Q1002 TEMPO 24018G35KT 2000 SHRAGS BKN025CB

METARs EXPIRÉS :
  • 140730Z AUTO 23020KT CAVOK 03/01 Q1002 TEMPO 24018G35KT 2000 SHRAGS BKN025CB
  • 140700Z AUTO 24020KT 9999 FEW021 SCT047 04/01 Q1001 BECMG 23016G26KT SCT025TCU BKN030
  • 140630Z AUTO 24019KT 9999 FEW023 SCT046 BKN054 04/01 Q1001 BECMG 23016G26KT SCT025TCU BKN030
  • 140600Z AUTO 24016KT 9999 FEW030 04/01 Q1001 BECMG 23016G26KT SCT025TCU BKN030
  • 140530Z AUTO 25017KT 9999 FEW030 04/01 Q1000 BECMG 23016G26KT SCT025TCU BKN030

TAF AMD TAF LFJL
Valide du 14 à 06h jusqu'au 15 à 06h UTC


140603Z 1406/1506 25020G30KT 9999 SCT030 SCT050
BECMG 1407/1410 23016G26KT SCT025TCU BKN030
TEMPO 1409/1418 24018G35KT 2000 SHRAGS BKN025CB
PROB30
TEMPO 1409/1501 TSRAGS
TEMPO 1418/1501 1500 SHRAGS BKN010 BKN020CB
PROB40
TEMPO 1501/1506 4000 SHRA BKN010 FEW025CB BKN030
Pas de NOTAMs connus pour ce terrain.



MET'MAP, la Météo Aéronautique d'un coup d'oeil ! - Copyright ORBIFLY Décembre 2007 - Disclaimer

ORBIFLY MET'MAP TEAM :

Programmation & Développement : Alexandra Zaïnal
Conception & Développement : Baudouin d'Aumeries
Co-Programmation & Développement : Marc-Olivier Méhu
Soutien technique & logistique : Manuel Goepfert

Contact : metmap@orbifly.com




SOURCES & CREDITS :

   NOAA